createdAt,value
2018-09-11T00:00:21.071Z,0.00
2018-09-11T00:01:21.164Z,0.00
2018-09-11T00:02:21.262Z,0.00
2018-09-11T00:03:21.364Z,0.00
2018-09-11T00:04:21.456Z,0.00
2018-09-11T00:05:21.550Z,0.00
2018-09-11T00:06:21.644Z,0.00
2018-09-11T00:07:21.739Z,0.00
2018-09-11T00:08:21.838Z,0.00
2018-09-11T00:09:21.944Z,0.00
2018-09-11T00:10:22.041Z,0.00
2018-09-11T00:11:22.144Z,0.00
2018-09-11T00:12:22.229Z,0.00
2018-09-11T00:13:22.318Z,0.00
2018-09-11T00:14:22.433Z,0.00
2018-09-11T00:15:22.530Z,0.00
2018-09-11T00:16:22.624Z,0.00
2018-09-11T00:17:22.714Z,0.00
2018-09-11T00:18:22.811Z,0.00
2018-09-11T00:19:22.897Z,0.00
2018-09-11T00:20:22.991Z,0.00
2018-09-11T00:21:23.073Z,0.00
2018-09-11T00:22:23.167Z,0.00
2018-09-11T00:23:23.267Z,0.00
2018-09-11T00:24:23.355Z,0.00
2018-09-11T00:25:23.451Z,0.00
2018-09-11T00:26:23.547Z,0.00
2018-09-11T00:27:23.641Z,0.00
2018-09-11T00:28:23.739Z,0.00
2018-09-11T00:29:23.852Z,0.00
2018-09-11T00:30:23.929Z,0.00
2018-09-11T00:31:24.035Z,0.00
2018-09-11T00:32:24.136Z,0.00
2018-09-11T00:33:24.229Z,0.00
2018-09-11T00:34:24.333Z,0.00
2018-09-11T00:35:24.421Z,0.00
2018-09-11T00:36:24.513Z,0.00
2018-09-11T00:37:24.626Z,0.00
2018-09-11T00:38:24.712Z,0.00
2018-09-11T00:39:24.808Z,0.00
2018-09-11T00:40:24.904Z,0.00
2018-09-11T00:41:24.998Z,0.00
2018-09-11T00:42:25.089Z,0.00
2018-09-11T00:43:25.194Z,0.00
2018-09-11T00:44:25.288Z,0.00
2018-09-11T00:45:25.387Z,0.00
2018-09-11T00:46:25.481Z,0.00
2018-09-11T00:47:25.588Z,0.00
2018-09-11T00:48:25.683Z,0.00
2018-09-11T00:49:25.783Z,0.00
2018-09-11T00:50:25.879Z,0.00
2018-09-11T00:51:25.968Z,0.00
2018-09-11T00:52:26.066Z,0.00
2018-09-11T00:53:26.163Z,0.00
2018-09-11T00:54:26.262Z,0.00
2018-09-11T00:55:26.356Z,0.00
2018-09-11T00:56:26.454Z,0.00
2018-09-11T00:57:26.549Z,0.00
2018-09-11T00:58:26.654Z,0.00
2018-09-11T00:59:26.753Z,0.00
2018-09-11T01:00:26.854Z,0.00
2018-09-11T01:01:26.981Z,0.00
2018-09-11T01:02:27.037Z,0.00
2018-09-11T01:03:27.136Z,0.00
2018-09-11T01:04:27.228Z,0.00
2018-09-11T01:05:27.322Z,0.00
2018-09-11T01:06:27.423Z,0.00
2018-09-11T01:07:27.525Z,0.00
2018-09-11T01:08:27.622Z,0.00
2018-09-11T01:09:27.705Z,0.00
2018-09-11T01:10:27.801Z,0.00
2018-09-11T01:11:27.908Z,0.00
2018-09-11T01:12:27.991Z,0.00
2018-09-11T01:13:28.091Z,0.00
2018-09-11T01:14:28.176Z,0.00
2018-09-11T01:15:28.267Z,0.00
2018-09-11T01:16:28.366Z,0.00
2018-09-11T01:17:28.463Z,0.00
2018-09-11T01:18:28.563Z,0.00
2018-09-11T01:19:28.662Z,0.00
2018-09-11T01:20:28.752Z,0.00
2018-09-11T01:21:28.860Z,0.00
2018-09-11T01:22:28.952Z,0.00
2018-09-11T01:23:29.053Z,0.00
2018-09-11T01:24:29.142Z,0.00
2018-09-11T01:25:29.232Z,0.00
2018-09-11T01:26:29.331Z,0.00
2018-09-11T01:27:29.423Z,0.00
2018-09-11T01:28:29.518Z,0.00
2018-09-11T01:29:29.629Z,0.00
2018-09-11T01:30:29.704Z,0.00
2018-09-11T01:31:29.798Z,0.00
2018-09-11T01:32:29.891Z,0.00
2018-09-11T01:33:29.992Z,0.00
2018-09-11T01:34:30.089Z,0.00
2018-09-11T01:35:30.179Z,0.00
2018-09-11T01:36:30.287Z,0.00
2018-09-11T01:37:30.381Z,0.00
2018-09-11T01:38:30.475Z,0.00
2018-09-11T01:39:30.561Z,0.00
2018-09-11T01:40:30.685Z,0.00
2018-09-11T01:41:30.783Z,0.00
2018-09-11T01:42:30.886Z,0.00
2018-09-11T01:43:30.975Z,0.00
2018-09-11T01:44:31.072Z,0.00
2018-09-11T01:45:31.162Z,0.00
2018-09-11T01:46:31.253Z,0.00
2018-09-11T01:47:31.347Z,0.00
2018-09-11T01:48:31.442Z,0.00
2018-09-11T01:49:31.531Z,0.00
2018-09-11T01:50:31.628Z,0.00
2018-09-11T01:51:31.717Z,0.00
2018-09-11T01:52:31.809Z,0.00
2018-09-11T01:53:31.914Z,0.00
2018-09-11T01:54:32.009Z,0.00
2018-09-11T01:55:32.098Z,0.00
2018-09-11T01:56:32.189Z,0.00
2018-09-11T01:57:32.288Z,0.00
2018-09-11T01:58:32.380Z,0.00
2018-09-11T01:59:32.483Z,0.00
2018-09-11T02:00:32.572Z,0.00
2018-09-11T02:01:32.665Z,0.00
2018-09-11T02:02:32.757Z,0.00
2018-09-11T02:03:32.853Z,0.00
2018-09-11T02:04:32.949Z,0.00
2018-09-11T02:05:33.040Z,0.00
2018-09-11T02:06:33.133Z,0.00
2018-09-11T02:07:33.228Z,0.00
2018-09-11T02:08:33.321Z,0.00
2018-09-11T02:09:33.418Z,0.00
2018-09-11T02:10:33.511Z,0.00
2018-09-11T02:11:33.614Z,0.00
2018-09-11T02:12:33.696Z,0.00
2018-09-11T02:13:33.793Z,0.00
2018-09-11T02:14:33.888Z,0.00
2018-09-11T02:15:33.979Z,0.00
2018-09-11T02:16:34.076Z,0.00
2018-09-11T02:17:34.171Z,0.00
2018-09-11T02:18:34.265Z,0.00
2018-09-11T02:19:34.367Z,0.00
2018-09-11T02:20:34.460Z,0.00
2018-09-11T02:21:34.556Z,0.00
2018-09-11T02:22:34.651Z,0.00
2018-09-11T02:23:34.745Z,0.00
2018-09-11T02:24:34.850Z,0.00
2018-09-11T02:25:34.941Z,0.00
2018-09-11T02:26:35.034Z,0.00
2018-09-11T02:27:35.133Z,0.00
2018-09-11T02:28:35.225Z,0.00
2018-09-11T02:29:35.328Z,0.00
2018-09-11T02:30:35.413Z,0.00
2018-09-11T02:31:35.516Z,0.00
2018-09-11T02:32:35.600Z,0.00
2018-09-11T02:33:35.692Z,0.00
2018-09-11T02:34:35.783Z,0.00
2018-09-11T02:35:35.890Z,0.00
2018-09-11T02:36:35.975Z,0.00
2018-09-11T02:37:36.070Z,0.00
2018-09-11T02:38:36.172Z,0.00
2018-09-11T02:39:36.263Z,0.00
2018-09-11T02:40:36.357Z,0.00
2018-09-11T02:41:36.463Z,0.00
2018-09-11T02:42:36.553Z,0.00
2018-09-11T02:43:36.650Z,0.00
2018-09-11T02:44:36.744Z,0.00
2018-09-11T02:45:36.839Z,0.00
2018-09-11T02:46:36.927Z,0.00
2018-09-11T02:47:37.020Z,0.00
2018-09-11T02:48:37.113Z,0.00
2018-09-11T02:49:37.207Z,0.00
2018-09-11T02:50:37.301Z,0.00
2018-09-11T02:51:37.395Z,0.00
2018-09-11T02:52:37.506Z,0.00
2018-09-11T02:53:37.663Z,0.00
2018-09-11T02:54:37.699Z,0.00
2018-09-11T02:55:37.794Z,0.00
2018-09-11T02:56:37.893Z,0.00
2018-09-11T02:57:37.985Z,0.00
2018-09-11T02:58:38.079Z,0.00
2018-09-11T02:59:38.172Z,0.00
2018-09-11T03:00:38.269Z,0.00
2018-09-11T03:01:38.363Z,0.00
2018-09-11T03:02:38.460Z,0.00
2018-09-11T03:03:38.556Z,0.00
2018-09-11T03:04:38.648Z,0.00
2018-09-11T03:05:38.741Z,0.00
2018-09-11T03:06:38.843Z,0.00
2018-09-11T03:07:38.935Z,0.00
2018-09-11T03:08:39.030Z,0.00
2018-09-11T03:09:39.121Z,0.00
2018-09-11T03:10:39.219Z,0.00
2018-09-11T03:11:39.314Z,0.00
2018-09-11T03:12:39.406Z,0.00
2018-09-11T03:13:39.498Z,0.00
2018-09-11T03:14:39.601Z,0.00
2018-09-11T03:15:39.688Z,0.00
2018-09-11T03:16:39.782Z,0.00
2018-09-11T03:17:39.876Z,0.00
2018-09-11T03:18:39.983Z,0.00
2018-09-11T03:19:40.071Z,0.00
2018-09-11T03:20:40.162Z,0.00
2018-09-11T03:21:40.262Z,0.00
2018-09-11T03:22:40.353Z,0.00
2018-09-11T03:23:40.449Z,0.00
2018-09-11T03:24:40.542Z,0.00
2018-09-11T03:25:40.641Z,0.00
2018-09-11T03:26:40.733Z,0.00
2018-09-11T03:27:40.830Z,0.00
2018-09-11T03:28:40.924Z,0.00
2018-09-11T03:29:41.017Z,0.00
2018-09-11T03:30:41.116Z,0.00
2018-09-11T03:31:41.217Z,0.00
2018-09-11T03:32:41.303Z,0.00
2018-09-11T03:33:41.399Z,0.00
2018-09-11T03:34:41.495Z,0.00
2018-09-11T03:35:41.607Z,0.00
2018-09-11T03:36:41.688Z,0.00
2018-09-11T03:37:41.772Z,0.00
2018-09-11T03:38:41.882Z,0.00
2018-09-11T03:39:41.977Z,0.00
2018-09-11T03:40:42.072Z,0.00
2018-09-11T03:41:42.165Z,0.00
2018-09-11T03:42:42.257Z,0.00
2018-09-11T03:43:42.350Z,0.00
2018-09-11T03:44:42.445Z,0.00
2018-09-11T03:45:42.544Z,0.00
2018-09-11T03:46:42.638Z,0.00
2018-09-11T03:47:42.734Z,0.00
2018-09-11T03:48:42.832Z,0.00
2018-09-11T03:49:42.925Z,0.00
2018-09-11T03:50:43.019Z,0.00
2018-09-11T03:51:43.113Z,0.00
2018-09-11T03:52:43.212Z,0.00
2018-09-11T03:53:43.304Z,0.00
2018-09-11T03:54:43.398Z,0.00
2018-09-11T03:55:43.493Z,0.00
2018-09-11T03:56:43.586Z,0.00
2018-09-11T03:57:43.678Z,0.00
2018-09-11T03:58:43.774Z,0.00
2018-09-11T03:59:43.870Z,0.00
2018-09-11T04:00:43.969Z,0.00
2018-09-11T04:01:44.059Z,0.00
2018-09-11T04:02:44.154Z,0.00
2018-09-11T04:03:44.249Z,0.00
2018-09-11T04:04:44.341Z,0.00
2018-09-11T04:05:44.435Z,0.00
2018-09-11T04:06:44.532Z,0.00
2018-09-11T04:07:44.625Z,0.00
2018-09-11T04:08:44.721Z,0.00
2018-09-11T04:09:44.819Z,0.00
2018-09-11T04:10:44.911Z,0.00
2018-09-11T04:11:45.004Z,0.00
2018-09-11T04:12:45.113Z,0.00
2018-09-11T04:13:45.193Z,0.00
2018-09-11T04:14:45.292Z,0.00
2018-09-11T04:15:45.384Z,0.00
2018-09-11T04:16:45.479Z,0.00
2018-09-11T04:17:45.571Z,0.00
2018-09-11T04:18:45.666Z,0.00
2018-09-11T04:19:45.761Z,0.00
2018-09-11T04:20:45.858Z,0.00
2018-09-11T04:21:45.957Z,0.00
2018-09-11T04:22:46.052Z,0.00
2018-09-11T04:23:46.142Z,0.00
2018-09-11T04:24:46.239Z,0.00
2018-09-11T04:25:46.432Z,0.00
2018-09-11T04:26:46.422Z,0.00
2018-09-11T04:27:46.518Z,0.00
2018-09-11T04:28:46.614Z,0.00
2018-09-11T04:29:46.804Z,0.00
2018-09-11T04:30:46.776Z,0.00
2018-09-11T04:31:46.876Z,0.00
2018-09-11T04:32:46.967Z,0.00
2018-09-11T04:33:47.061Z,0.00
2018-09-11T04:34:47.156Z,0.00
2018-09-11T04:35:47.254Z,0.00
2018-09-11T04:36:47.349Z,0.00
2018-09-11T04:37:47.433Z,0.00
2018-09-11T04:38:47.523Z,0.00
2018-09-11T04:39:47.626Z,0.00
2018-09-11T04:40:47.712Z,0.00
2018-09-11T04:41:47.805Z,0.00
2018-09-11T04:42:47.925Z,0.00
2018-09-11T04:43:47.994Z,0.00
2018-09-11T04:44:48.088Z,0.00
2018-09-11T04:45:48.181Z,5.63
2018-09-11T04:46:48.282Z,5.63
2018-09-11T04:47:48.371Z,5.63
2018-09-11T04:48:48.459Z,5.63
2018-09-11T04:49:48.555Z,5.63
2018-09-11T04:50:48.646Z,5.63
2018-09-11T04:51:48.748Z,11.25
2018-09-11T04:52:48.853Z,11.25
2018-09-11T04:53:48.942Z,11.25
2018-09-11T04:54:49.041Z,11.25
2018-09-11T04:55:49.140Z,16.88
2018-09-11T04:56:49.249Z,16.88
2018-09-11T04:57:49.317Z,16.88
2018-09-11T04:58:49.402Z,16.88
2018-09-11T04:59:49.497Z,22.50
2018-09-11T05:00:49.595Z,22.50
2018-09-11T05:01:49.683Z,22.50
2018-09-11T05:02:49.777Z,28.13
2018-09-11T05:03:49.863Z,28.13
2018-09-11T05:04:49.960Z,33.75
2018-09-11T05:05:50.055Z,33.75
2018-09-11T05:06:50.152Z,33.75
2018-09-11T05:07:50.245Z,39.38
2018-09-11T05:08:50.340Z,39.38
2018-09-11T05:09:51.425Z,39.38
2018-09-11T05:10:50.516Z,45.00
2018-09-11T05:11:50.608Z,45.00
2018-09-11T05:12:50.733Z,50.63
2018-09-11T05:13:50.816Z,50.63
2018-09-11T05:14:50.916Z,50.63
2018-09-11T05:15:51.047Z,56.25
2018-09-11T05:16:51.158Z,56.25
2018-09-11T05:17:51.245Z,56.25
2018-09-11T05:18:51.339Z,56.25
2018-09-11T05:19:51.440Z,61.88
2018-09-11T05:20:51.567Z,61.88
2018-09-11T05:21:51.669Z,61.88
2018-09-11T05:22:51.764Z,67.50
2018-09-11T05:23:51.871Z,67.50
2018-09-11T05:24:51.956Z,73.13
2018-09-11T05:25:52.051Z,73.13
2018-09-11T05:26:52.143Z,73.13
2018-09-11T05:27:52.242Z,78.75
2018-09-11T05:28:52.331Z,78.75
2018-09-11T05:29:52.425Z,78.75
2018-09-11T05:30:52.527Z,84.38
2018-09-11T05:31:52.619Z,84.38
2018-09-11T05:32:52.714Z,84.38
2018-09-11T05:33:52.811Z,90.00
2018-09-11T05:34:52.910Z,90.00
2018-09-11T05:35:53.008Z,90.00
2018-09-11T05:36:53.100Z,95.63
2018-09-11T05:37:53.194Z,95.63
2018-09-11T05:38:53.338Z,95.63
2018-09-11T05:39:53.390Z,101.25
2018-09-11T05:40:53.476Z,101.25
2018-09-11T05:41:53.577Z,101.25
2018-09-11T05:42:53.671Z,106.88
2018-09-11T05:43:53.785Z,106.88
2018-09-11T05:44:53.870Z,112.50
2018-09-11T05:45:53.962Z,112.50
2018-09-11T05:46:54.064Z,112.50
2018-09-11T05:47:54.240Z,118.13
2018-09-11T05:48:54.222Z,118.13
2018-09-11T05:49:54.325Z,118.13
2018-09-11T05:50:54.413Z,118.13
2018-09-11T05:51:54.511Z,123.75
2018-09-11T05:52:54.604Z,118.13
2018-09-11T05:53:54.701Z,123.75
2018-09-11T05:54:54.794Z,123.75
2018-09-11T05:55:54.892Z,129.38
2018-09-11T05:56:54.995Z,135.00
2018-09-11T05:57:55.102Z,135.00
2018-09-11T05:58:55.184Z,135.00
2018-09-11T05:59:55.274Z,135.00
2018-09-11T06:00:55.373Z,140.63
2018-09-11T06:01:55.463Z,146.25
2018-09-11T06:02:55.555Z,151.88
2018-09-11T06:03:55.647Z,157.50
2018-09-11T06:04:55.754Z,163.13
2018-09-11T06:05:55.837Z,168.75
2018-09-11T06:06:55.928Z,174.38
2018-09-11T06:07:56.042Z,180.00
2018-09-11T06:08:56.140Z,185.63
2018-09-11T06:09:56.261Z,191.25
2018-09-11T06:10:56.345Z,196.88
2018-09-11T06:11:56.440Z,202.50
2018-09-11T06:12:56.539Z,202.50
2018-09-11T06:13:56.634Z,213.75
2018-09-11T06:14:56.730Z,225.00
2018-09-11T06:15:56.827Z,230.63
2018-09-11T06:16:56.915Z,253.13
2018-09-11T06:17:57.031Z,365.63
2018-09-11T06:18:57.122Z,596.25
2018-09-11T06:19:57.214Z,781.88
2018-09-11T06:20:57.310Z,832.50
2018-09-11T06:21:57.408Z,860.63
2018-09-11T06:22:57.504Z,877.50
2018-09-11T06:23:57.584Z,888.75
2018-09-11T06:24:57.682Z,888.75
2018-09-11T06:25:57.777Z,990.00
2018-09-11T06:26:57.870Z,1046.25
2018-09-11T06:27:57.961Z,961.88
2018-09-11T06:28:58.117Z,939.38
2018-09-11T06:29:58.153Z,961.88
2018-09-11T06:30:58.246Z,871.88
2018-09-11T06:31:58.348Z,894.38
2018-09-11T06:32:58.449Z,787.50
2018-09-11T06:33:58.547Z,900.00
2018-09-11T06:34:58.642Z,781.88
2018-09-11T06:35:58.737Z,742.50
2018-09-11T06:36:58.834Z,826.88
2018-09-11T06:37:58.922Z,748.13
2018-09-11T06:38:59.016Z,821.25
2018-09-11T06:39:59.112Z,748.13
2018-09-11T06:40:59.270Z,714.38
2018-09-11T06:41:59.312Z,731.25
2018-09-11T06:42:59.414Z,691.88
2018-09-11T06:43:59.518Z,663.75
2018-09-11T06:44:59.621Z,708.75
2018-09-11T06:45:59.698Z,607.50
2018-09-11T06:46:59.852Z,630.00
2018-09-11T06:47:59.894Z,551.25
2018-09-11T06:48:59.998Z,573.75
2018-09-11T06:50:00.095Z,545.63
2018-09-11T06:51:00.195Z,478.13
2018-09-11T06:52:00.289Z,478.13
2018-09-11T06:53:00.385Z,534.38
2018-09-11T06:54:00.488Z,568.13
2018-09-11T06:55:00.583Z,618.75
2018-09-11T06:56:00.668Z,590.63
2018-09-11T06:57:00.763Z,556.88
2018-09-11T06:58:00.883Z,658.13
2018-09-11T06:59:01.007Z,624.38
2018-09-11T07:00:01.070Z,579.38
2018-09-11T07:01:01.167Z,601.88
2018-09-11T07:02:01.380Z,624.38
2018-09-11T07:03:01.372Z,675.00
2018-09-11T07:04:01.462Z,680.63
2018-09-11T07:05:01.551Z,675.00
2018-09-11T07:06:01.642Z,720.00
2018-09-11T07:07:01.741Z,691.88
2018-09-11T07:08:01.838Z,624.38
2018-09-11T07:09:01.945Z,652.50
2018-09-11T07:10:02.066Z,601.88
2018-09-11T07:11:02.168Z,601.88
2018-09-11T07:12:02.263Z,607.50
2018-09-11T07:13:02.359Z,585.00
2018-09-11T07:14:02.461Z,562.50
2018-09-11T07:15:02.560Z,506.25
2018-09-11T07:16:02.658Z,478.13
2018-09-11T07:17:02.774Z,343.13
2018-09-11T07:18:02.872Z,258.75
2018-09-11T07:19:02.972Z,258.75
2018-09-11T07:20:03.349Z,275.63
2018-09-11T07:21:03.167Z,270.00
2018-09-11T07:22:03.274Z,264.38
2018-09-11T07:23:03.374Z,247.50
2018-09-11T07:24:03.473Z,241.88
2018-09-11T07:25:03.574Z,225.00
2018-09-11T07:26:03.695Z,208.13
2018-09-11T07:27:03.784Z,208.13
2018-09-11T07:28:03.884Z,213.75
2018-09-11T07:29:03.984Z,230.63
2018-09-11T07:30:04.090Z,258.75
2018-09-11T07:31:04.165Z,292.50
2018-09-11T07:32:04.260Z,275.63
2018-09-11T07:33:04.361Z,253.13
2018-09-11T07:34:04.454Z,230.63
2018-09-11T07:35:04.551Z,230.63
2018-09-11T07:36:04.650Z,230.63
2018-09-11T07:37:04.755Z,225.00
2018-09-11T07:38:04.846Z,219.38
2018-09-11T07:39:04.950Z,219.38
2018-09-11T07:40:05.042Z,225.00
2018-09-11T07:41:05.138Z,225.00
2018-09-11T07:42:05.290Z,253.13
2018-09-11T07:43:05.361Z,258.75
2018-09-11T07:44:05.461Z,264.38
2018-09-11T07:45:05.554Z,270.00
2018-09-11T07:46:05.649Z,292.50
2018-09-11T07:47:05.749Z,286.88
2018-09-11T07:48:05.845Z,303.75
2018-09-11T07:49:05.950Z,303.75
2018-09-11T07:50:06.034Z,298.13
2018-09-11T07:51:06.143Z,298.13
2018-09-11T07:52:06.237Z,281.25
2018-09-11T07:53:06.339Z,264.38
2018-09-11T07:54:06.441Z,253.13
2018-09-11T07:55:06.538Z,275.63
2018-09-11T07:56:06.637Z,286.88
2018-09-11T07:57:06.733Z,281.25
2018-09-11T07:58:06.941Z,270.00
2018-09-11T07:59:06.952Z,281.25
2018-09-11T08:00:07.046Z,286.88
2018-09-11T08:01:07.143Z,292.50
2018-09-11T08:02:07.239Z,292.50
2018-09-11T08:03:07.363Z,298.13
2018-09-11T08:04:07.437Z,292.50
2018-09-11T08:05:07.557Z,303.75
2018-09-11T08:06:07.619Z,309.38
2018-09-11T08:07:07.718Z,315.00
2018-09-11T08:08:07.814Z,315.00
2018-09-11T08:09:07.912Z,309.38
2018-09-11T08:10:08.019Z,303.75
2018-09-11T08:11:08.110Z,309.38
2018-09-11T08:12:08.241Z,303.75
2018-09-11T08:13:08.559Z,298.13
2018-09-11T08:14:08.407Z,303.75
2018-09-11T08:15:08.489Z,309.38
2018-09-11T08:16:08.591Z,315.00
2018-09-11T08:17:08.749Z,303.75
2018-09-11T08:18:08.856Z,315.00
2018-09-11T08:19:08.969Z,315.00
2018-09-11T08:20:09.086Z,275.63
2018-09-11T08:21:09.188Z,315.00
2018-09-11T08:22:09.271Z,309.38
2018-09-11T08:23:09.368Z,315.00
2018-09-11T08:24:09.468Z,320.63
2018-09-11T08:25:09.568Z,315.00
2018-09-11T08:26:09.656Z,315.00
2018-09-11T08:27:09.799Z,315.00
2018-09-11T08:28:09.857Z,309.38
2018-09-11T08:29:09.975Z,320.63
2018-09-11T08:30:10.045Z,303.75
2018-09-11T08:31:10.146Z,309.38
2018-09-11T08:32:10.243Z,309.38
2018-09-11T08:33:10.338Z,309.38
2018-09-11T08:34:10.437Z,320.63
2018-09-11T08:35:10.555Z,315.00
2018-09-11T08:36:10.656Z,320.63
2018-09-11T08:37:10.756Z,320.63
2018-09-11T08:38:10.848Z,315.00
2018-09-11T08:39:10.951Z,315.00
2018-09-11T08:40:11.052Z,320.63
2018-09-11T08:41:11.166Z,315.00
2018-09-11T08:42:11.267Z,315.00
2018-09-11T08:43:11.363Z,315.00
2018-09-11T08:44:11.462Z,315.00
2018-09-11T08:45:11.554Z,303.75
2018-09-11T08:46:11.657Z,315.00
2018-09-11T08:47:11.757Z,320.63
2018-09-11T08:48:11.862Z,326.25
2018-09-11T08:49:11.946Z,326.25
2018-09-11T08:50:12.044Z,320.63
2018-09-11T08:51:12.146Z,326.25
2018-09-11T08:52:12.339Z,331.88
2018-09-11T08:53:12.339Z,320.63
2018-09-11T08:54:12.439Z,320.63
2018-09-11T08:55:12.537Z,320.63
2018-09-11T08:56:12.641Z,309.38
2018-09-11T08:57:12.737Z,315.00
2018-09-11T08:58:12.837Z,309.38
2018-09-11T08:59:12.936Z,315.00
2018-09-11T09:00:13.042Z,315.00
2018-09-11T09:01:13.143Z,315.00
2018-09-11T09:02:13.293Z,326.25
2018-09-11T09:03:13.364Z,320.63
2018-09-11T09:04:13.462Z,343.13
2018-09-11T09:05:13.562Z,337.50
2018-09-11T09:06:13.659Z,337.50
2018-09-11T09:07:13.758Z,337.50
2018-09-11T09:08:13.856Z,343.13
2018-09-11T09:09:13.958Z,337.50
2018-09-11T09:10:14.109Z,337.50
2018-09-11T09:11:14.148Z,337.50
2018-09-11T09:12:14.248Z,343.13
2018-09-11T09:13:14.349Z,343.13
2018-09-11T09:14:14.447Z,343.13
2018-09-11T09:15:14.549Z,337.50
2018-09-11T09:16:14.647Z,343.13
2018-09-11T09:17:14.746Z,348.75
2018-09-11T09:18:14.844Z,354.38
2018-09-11T09:19:14.943Z,348.75
2018-09-11T09:20:15.042Z,354.38
2018-09-11T09:21:15.141Z,360.00
2018-09-11T09:22:15.243Z,354.38
2018-09-11T09:23:15.349Z,354.38
2018-09-11T09:24:15.440Z,343.13
2018-09-11T09:25:15.547Z,343.13
2018-09-11T09:26:15.646Z,337.50
2018-09-11T09:27:15.836Z,343.13
2018-09-11T09:28:15.844Z,337.50
2018-09-11T09:29:15.944Z,348.75
2018-09-11T09:30:16.064Z,343.13
2018-09-11T09:31:16.162Z,343.13
2018-09-11T09:32:16.259Z,348.75
2018-09-11T09:33:16.358Z,348.75
2018-09-11T09:34:16.456Z,360.00
2018-09-11T09:35:16.556Z,360.00
2018-09-11T09:36:16.656Z,365.63
2018-09-11T09:37:16.769Z,354.38
2018-09-11T09:38:16.912Z,348.75
2018-09-11T09:39:16.966Z,354.38
2018-09-11T09:40:17.069Z,360.00
2018-09-11T09:41:17.166Z,360.00
2018-09-11T09:42:17.270Z,348.75
2018-09-11T09:43:17.357Z,348.75
2018-09-11T09:44:17.464Z,365.63
2018-09-11T09:45:17.562Z,382.50
2018-09-11T09:46:17.664Z,376.88
2018-09-11T09:47:17.769Z,393.75
2018-09-11T09:48:17.861Z,382.50
2018-09-11T09:49:17.962Z,371.25
2018-09-11T09:50:18.060Z,365.63
2018-09-11T09:51:18.158Z,376.88
2018-09-11T09:52:18.255Z,382.50
2018-09-11T09:53:18.355Z,371.25
2018-09-11T09:54:18.455Z,376.88
2018-09-11T09:55:18.554Z,393.75
2018-09-11T09:56:18.655Z,393.75
2018-09-11T09:57:18.752Z,382.50
2018-09-11T09:58:18.856Z,376.88
2018-09-11T09:59:18.946Z,382.50
2018-09-11T10:00:19.048Z,382.50
2018-09-11T10:01:19.149Z,376.88
2018-09-11T10:02:19.254Z,405.00
2018-09-11T10:03:19.344Z,405.00
2018-09-11T10:04:19.444Z,410.63
2018-09-11T10:05:19.545Z,421.88
2018-09-11T10:06:19.640Z,421.88
2018-09-11T10:07:19.737Z,421.88
2018-09-11T10:08:19.839Z,416.25
2018-09-11T10:09:19.937Z,421.88
2018-09-11T10:10:20.037Z,421.88
2018-09-11T10:11:20.133Z,421.88
2018-09-11T10:12:20.234Z,433.13
2018-09-11T10:13:20.339Z,438.75
2018-09-11T10:14:20.434Z,433.13
2018-09-11T10:15:20.534Z,427.50
2018-09-11T10:16:20.643Z,416.25
2018-09-11T10:17:20.742Z,410.63
2018-09-11T10:18:20.848Z,562.50
2018-09-11T10:19:20.959Z,410.63
2018-09-11T10:20:21.065Z,416.25
2018-09-11T10:21:21.160Z,416.25
2018-09-11T10:22:21.250Z,421.88
2018-09-11T10:23:21.340Z,421.88
2018-09-11T10:24:21.456Z,416.25
2018-09-11T10:25:21.554Z,393.75
2018-09-11T10:26:21.671Z,371.25
2018-09-11T10:27:21.767Z,410.63
2018-09-11T10:28:21.886Z,388.13
2018-09-11T10:29:21.985Z,388.13
2018-09-11T10:30:22.088Z,354.38
2018-09-11T10:31:22.185Z,365.63
2018-09-11T10:32:22.284Z,393.75
2018-09-11T10:33:22.387Z,410.63
2018-09-11T10:34:22.492Z,466.88
2018-09-11T10:35:22.596Z,416.25
2018-09-11T10:36:22.701Z,421.88
2018-09-11T10:37:22.803Z,388.13
2018-09-11T10:38:22.902Z,421.88
2018-09-11T10:39:23.060Z,405.00
2018-09-11T10:40:23.173Z,399.38
2018-09-11T10:41:23.153Z,399.38
2018-09-11T10:42:23.251Z,421.88
2018-09-11T10:43:23.355Z,371.25
2018-09-11T10:44:23.463Z,399.38
2018-09-11T10:45:23.562Z,376.88
2018-09-11T10:46:23.662Z,382.50
2018-09-11T10:47:23.765Z,365.63
2018-09-11T10:48:23.863Z,354.38
2018-09-11T10:49:23.966Z,365.63
2018-09-11T10:50:24.069Z,376.88
2018-09-11T10:51:24.167Z,388.13
2018-09-11T10:52:24.271Z,399.38
2018-09-11T10:53:24.373Z,410.63
2018-09-11T10:54:24.471Z,393.75
2018-09-11T10:55:24.565Z,388.13
2018-09-11T10:56:24.670Z,399.38
2018-09-11T10:57:24.770Z,376.88
2018-09-11T10:58:24.930Z,421.88
2018-09-11T10:59:24.972Z,416.25
2018-09-11T11:00:25.146Z,399.38
2018-09-11T11:01:25.177Z,399.38
2018-09-11T11:02:25.272Z,388.13
2018-09-11T11:03:25.378Z,365.63
2018-09-11T11:04:25.478Z,382.50
2018-09-11T11:05:25.588Z,405.00
2018-09-11T11:06:25.690Z,405.00
2018-09-11T11:07:25.790Z,399.38
2018-09-11T11:08:25.894Z,410.63
2018-09-11T11:09:25.994Z,405.00
2018-09-11T11:10:26.093Z,410.63
2018-09-11T11:11:26.199Z,405.00
2018-09-11T11:12:26.304Z,388.13
2018-09-11T11:13:26.404Z,382.50
2018-09-11T11:14:26.511Z,388.13
2018-09-11T11:15:26.606Z,399.38
2018-09-11T11:16:26.706Z,399.38
2018-09-11T11:17:26.813Z,399.38
2018-09-11T11:18:26.910Z,405.00
2018-09-11T11:19:27.012Z,388.13
2018-09-11T11:20:27.110Z,405.00
2018-09-11T11:21:27.208Z,410.63
2018-09-11T11:22:27.304Z,410.63
2018-09-11T11:23:27.412Z,405.00
2018-09-11T11:24:27.514Z,416.25
2018-09-11T11:25:27.624Z,405.00
2018-09-11T11:26:27.732Z,405.00
2018-09-11T11:27:27.832Z,388.13
2018-09-11T11:28:27.933Z,388.13
2018-09-11T11:29:28.029Z,393.75
2018-09-11T11:30:28.135Z,371.25
2018-09-11T11:31:28.246Z,382.50
2018-09-11T11:32:28.340Z,388.13
2018-09-11T11:33:28.443Z,382.50
2018-09-11T11:34:28.545Z,382.50
2018-09-11T11:35:28.649Z,360.00
2018-09-11T11:36:28.759Z,371.25
2018-09-11T11:37:29.056Z,365.63
2018-09-11T11:38:28.954Z,354.38
2018-09-11T11:39:29.055Z,371.25
2018-09-11T11:40:36.805Z,365.63
2018-09-11T11:41:29.261Z,393.75
2018-09-11T11:42:29.436Z,382.50
2018-09-11T11:43:29.465Z,382.50
2018-09-11T11:44:29.568Z,388.13
2018-09-11T11:45:29.670Z,388.13
2018-09-11T11:46:29.774Z,388.13
2018-09-11T11:47:29.869Z,382.50
2018-09-11T11:48:29.980Z,371.25
2018-09-11T11:49:30.105Z,376.88
2018-09-11T11:50:30.204Z,365.63
2018-09-11T11:51:30.306Z,371.25
2018-09-11T11:52:30.407Z,376.88
2018-09-11T11:53:30.507Z,388.13
2018-09-11T11:54:30.602Z,382.50
2018-09-11T11:55:30.740Z,365.63
2018-09-11T11:56:30.815Z,382.50
2018-09-11T11:57:30.914Z,388.13
2018-09-11T11:58:31.545Z,382.50
2018-09-11T11:59:31.143Z,382.50
2018-09-11T12:00:31.242Z,365.63
2018-09-11T12:01:31.411Z,365.63
2018-09-11T12:02:31.443Z,371.25
2018-09-11T12:03:31.550Z,427.50
2018-09-11T12:04:31.654Z,371.25
2018-09-11T12:05:31.752Z,376.88
2018-09-11T12:06:31.853Z,365.63
2018-09-11T12:07:31.954Z,371.25
2018-09-11T12:08:32.057Z,371.25
2018-09-11T12:09:32.161Z,388.13
2018-09-11T12:10:32.261Z,376.88
2018-09-11T12:11:32.372Z,354.38
2018-09-11T12:12:32.460Z,360.00
2018-09-11T12:13:32.562Z,354.38
2018-09-11T12:14:32.714Z,393.75
2018-09-11T12:15:32.773Z,371.25
2018-09-11T12:16:32.869Z,416.25
2018-09-11T12:17:32.974Z,365.63
2018-09-11T12:18:33.077Z,371.25
2018-09-11T12:19:33.176Z,365.63
2018-09-11T12:20:33.278Z,343.13
2018-09-11T12:21:33.380Z,343.13
2018-09-11T12:22:33.504Z,354.38
2018-09-11T12:23:33.606Z,354.38
2018-09-11T12:24:33.708Z,360.00
2018-09-11T12:25:33.844Z,365.63
2018-09-11T12:26:33.912Z,365.63
2018-09-11T12:27:34.016Z,354.38
2018-09-11T12:28:34.118Z,354.38
2018-09-11T12:29:34.216Z,360.00
2018-09-11T12:30:34.321Z,371.25
2018-09-11T12:31:34.424Z,354.38
2018-09-11T12:32:34.554Z,365.63
2018-09-11T12:33:34.623Z,360.00
2018-09-11T12:34:34.733Z,371.25
2018-09-11T12:35:34.828Z,376.88
2018-09-11T12:36:34.932Z,371.25
2018-09-11T12:37:35.035Z,371.25
2018-09-11T12:38:35.135Z,371.25
2018-09-11T12:39:35.235Z,365.63
2018-09-11T12:40:35.334Z,360.00
2018-09-11T12:41:35.439Z,354.38
2018-09-11T12:42:35.543Z,343.13
2018-09-11T12:43:35.646Z,343.13
2018-09-11T12:44:35.748Z,348.75
2018-09-11T12:45:35.854Z,337.50
2018-09-11T12:46:36.177Z,337.50
2018-09-11T12:47:36.389Z,348.75
2018-09-11T12:48:36.301Z,354.38
2018-09-11T12:49:36.264Z,331.88